Saga Pearl II — 9HA2950 — position and weather

sailwx.info

Track history (hours):
 
Tides and Currents Weather Stations Pressure Air Temp Water Temp Dewpoint Dewpoint Depression Visibility Wind Speed Wind Dir Waves Ship Positions

Saga Pearl II

Last reported at 2017-Apr-29 13:17 UTC. Time now 2017-Apr-29 13:32 UTC.
Position N 51°07' E 001°19'.

Length 164 m; draft 6.3 m.

Type: Ship. MMSI: 256878000.

Date/timePositionNaut miles runAvg speedWind from/ knotsBaromVisibWave heightAir tempDewpointWater temp
2017-Apr-29 13:17N 51°07' E 001°19'0 0.0
2017-Apr-29 12:56N 51°07' E 001°19'0 0.1
2017-Apr-29 07:24N 51°07' E 001°20'3 7.4
2017-Apr-29 06:59N 51°07' E 001°24'4 7.4
2017-Apr-29 06:30N 51°08' E 001°30'4 7.3
2017-Apr-29 06:00N 51°10' E 001°35'3 6.1
2017-Apr-29 05:30N 51°11' E 001°39'3 6.1
2017-Apr-29 05:00N 51°13' E 001°43'3 6.3
2017-Apr-29 04:30N 51°15' E 001°46'3 6.9
2017-Apr-29 04:00N 51°18' E 001°49'3 7.0
2017-Apr-29 03:30N 51°21' E 001°53'4 6.9
2017-Apr-29 03:00N 51°24' E 001°56'3 5.6
2017-Apr-29 02:30N 51°26' E 001°59'4 7.7
2017-Apr-29 02:00N 51°24' E 002°05'5 9.4
2017-Apr-29 01:30N 51°22' E 002°12'4 8.8
2017-Apr-29 01:00N 51°20' E 002°18'3 6.4
2017-Apr-29 00:30N 51°22' E 002°23'3 5.2
2017-Apr-29 00:00N 51°22' E 002°27'3 5.5
2017-Apr-28 23:30N 51°23' E 002°31'3 6.3
2017-Apr-28 23:00N 51°22' E 002°36'4 8.3
2017-Apr-28 22:30N 51°22' E 002°43'611.7
2017-Apr-28 22:00N 51°22' E 002°52'612.9
2017-Apr-28 21:30N 51°24' E 003°02'510.5
2017-Apr-28 21:00N 51°24' E 003°10'611.1
2017-Apr-28 20:30N 51°24' E 003°19'611.5
2017-Apr-28 20:00N 51°25' E 003°28'714.8
2017-Apr-28 19:30N 51°27' E 003°40'1 0.9
2017-Apr-28 18:38N 51°27' E 003°41'0 0.0
2017-Apr-28 18:20N 51°27' E 003°41'0 0.0
2017-Apr-28 14:24N 51°27' E 003°41'0 0.0
2017-Apr-28 12:59N 51°27' E 003°41'0 0.0
2017-Apr-28 12:23N 51°27' E 003°41'0 0.0
2017-Apr-28 05:13N 51°27' E 003°41'  
2017-Apr-25 12:56N 51°28' E 003°41'0 0.0
2017-Apr-25 11:47N 51°28' E 003°41'0 0.0
2017-Apr-25 11:16N 51°28' E 003°41'0 0.0
2017-Apr-25 10:58N 51°28' E 003°41'0 0.0
2017-Apr-25 09:40N 51°28' E 003°41'0 0.0
2017-Apr-25 09:22N 51°28' E 003°41'0 0.0
2017-Apr-25 08:42N 51°28' E 003°41'0 0.0
2017-Apr-25 08:21N 51°28' E 003°41'0 0.0
2017-Apr-25 07:57N 51°28' E 003°41'0 0.0
2017-Apr-25 07:29N 51°28' E 003°41'0 0.0
2017-Apr-25 06:51N 51°28' E 003°41'0 0.0
2017-Apr-25 06:29N 51°28' E 003°41'0 0.0
2017-Apr-25 06:00N 51°28' E 003°41'0 0.0
2017-Apr-25 05:29N 51°28' E 003°41'0 0.0
2017-Apr-25 04:59N 51°28' E 003°41'0 0.0
2017-Apr-25 04:30N 51°28' E 003°41'0 0.0
2017-Apr-25 04:00N 51°28' E 003°41'0 0.0
2017-Apr-25 03:30N 51°28' E 003°41'0 0.0
2017-Apr-25 03:00N 51°28' E 003°41'0 0.0
2017-Apr-25 02:30N 51°28' E 003°41'0 0.0
2017-Apr-25 02:00N 51°28' E 003°41'0 0.0
2017-Apr-25 01:30N 51°28' E 003°41'0 0.0
2017-Apr-25 01:00N 51°28' E 003°41'0 0.0
2017-Apr-25 00:30N 51°28' E 003°41'0 0.0
2017-Apr-25 00:00N 51°28' E 003°41'1 1.9
2017-Apr-24 23:29N 51°27' E 003°42'0 0.0
2017-Apr-24 23:00N 51°27' E 003°42'0 0.0
2017-Apr-24 22:28N 51°27' E 003°42'0 0.0
2017-Apr-24 22:00N 51°27' E 003°42'0 0.0
2017-Apr-24 21:30N 51°27' E 003°42'0 0.0
2017-Apr-24 21:00N 51°27' E 003°42'0 0.0
2017-Apr-24 20:26N 51°27' E 003°42'0 0.0
2017-Apr-24 20:00N 51°27' E 003°42'0 0.0
2017-Apr-24 19:28N 51°27' E 003°42'0 0.0
2017-Apr-24 18:48N 51°27' E 003°42'0 0.0
2017-Apr-24 18:30N 51°27' E 003°42'0 0.0
2017-Apr-24 17:59N 51°27' E 003°42'0 0.0
2017-Apr-24 17:30N 51°27' E 003°42'0 0.0
2017-Apr-24 17:00N 51°27' E 003°42'0 0.0
2017-Apr-24 16:30N 51°27' E 003°42'0 0.0
2017-Apr-24 15:57N 51°27' E 003°42'1 1.7
2017-Apr-24 15:30N 51°27' E 003°41'0 0.0
2017-Apr-24 15:00N 51°27' E 003°41'0 0.0
2017-Apr-24 14:30N 51°27' E 003°41'0 0.0
2017-Apr-24 13:30N 51°27' E 003°41'0 0.0
2017-Apr-24 13:00N 51°27' E 003°41'0 0.0
2017-Apr-24 12:25N 51°27' E 003°41'0 0.0
2017-Apr-24 11:58N 51°27' E 003°41'0 0.0
2017-Apr-24 11:26N 51°27' E 003°41'0 0.0
2017-Apr-24 10:59N 51°27' E 003°41'0 0.0
2017-Apr-24 10:30N 51°27' E 003°41'0 0.0
2017-Apr-24 10:00N 51°27' E 003°41'0 0.0
2017-Apr-24 09:29N 51°27' E 003°41'0 0.0
2017-Apr-24 09:00N 51°27' E 003°41'0 0.0
2017-Apr-24 08:30N 51°27' E 003°41'0 0.9
2017-Apr-24 08:00N 51°27' E 003°41'0 0.0
2017-Apr-24 07:30N 51°27' E 003°41'0 0.0
2017-Apr-24 06:58N 51°27' E 003°41'0 0.0
2017-Apr-24 06:30N 51°27' E 003°41'0 0.0
2017-Apr-24 05:56N 51°27' E 003°41'0 0.0
2017-Apr-24 05:29N 51°27' E 003°41'0 0.0
2017-Apr-24 05:00N 51°27' E 003°41'0 0.0
2017-Apr-24 04:30N 51°27' E 003°41'0 0.0
2017-Apr-24 03:59N 51°27' E 003°41'1 2.9
2017-Apr-24 03:30N 51°28' E 003°40'0 0.0
2017-Apr-24 03:00N 51°28' E 003°40'0 0.0
2017-Apr-24 02:28N 51°28' E 003°40'0 0.0
2017-Apr-24 01:58N 51°28' E 003°40'0 0.0
2017-Apr-24 01:28N 51°28' E 003°40'0 0.0
2017-Apr-24 00:57N 51°28' E 003°40'0 0.0
2017-Apr-24 00:28N 51°28' E 003°40'0 0.0
2017-Apr-23 23:59N 51°28' E 003°40'0 0.0
2017-Apr-23 23:26N 51°28' E 003°40'0 0.0
2017-Apr-23 23:00N 51°28' E 003°40'0 0.0
2017-Apr-23 22:30N 51°28' E 003°40'0 0.0
2017-Apr-23 21:58N 51°28' E 003°40'0 0.0
2017-Apr-23 21:28N 51°28' E 003°40'0 0.0
2017-Apr-23 21:00N 51°28' E 003°40'0 0.0
2017-Apr-23 20:28N 51°28' E 003°40'0 0.0
2017-Apr-23 20:00N 51°28' E 003°40'0 0.0
2017-Apr-23 19:30N 51°28' E 003°40'0 0.0
2017-Apr-23 18:54N 51°28' E 003°40'0 0.0
2017-Apr-23 18:29N 51°28' E 003°40'0 0.0
2017-Apr-23 18:00N 51°28' E 003°40'0 0.0
2017-Apr-23 17:30N 51°28' E 003°40'0 0.0
2017-Apr-23 17:00N 51°28' E 003°40'0 0.0
2017-Apr-23 16:28N 51°28' E 003°40'0 0.0
2017-Apr-23 15:55N 51°28' E 003°40'0 0.0
2017-Apr-23 15:29N 51°28' E 003°40'0 0.0
2017-Apr-23 14:59N 51°28' E 003°40'0 0.0
2017-Apr-23 14:00N 51°28' E 003°40'0 0.0
2017-Apr-23 13:29N 51°28' E 003°40'0 0.0
2017-Apr-23 13:00N 51°28' E 003°40'0 0.0
2017-Apr-23 12:30N 51°28' E 003°40'0 0.0
2017-Apr-23 11:59N 51°28' E 003°40'1 0.0
2017-Apr-22 00:58N 51°28' E 003°41'0 0.0
2017-Apr-22 00:28N 51°28' E 003°41'0 0.0
2017-Apr-21 23:55N 51°28' E 003°41'0 0.0
2017-Apr-21 23:29N 51°28' E 003°41'0 0.0
2017-Apr-21 23:00N 51°28' E 003°41'0 0.0
2017-Apr-21 22:30N 51°28' E 003°41'0 0.0
2017-Apr-21 22:00N 51°28' E 003°41'0 0.0
2017-Apr-21 21:30N 51°28' E 003°41'0 0.0
2017-Apr-21 21:00N 51°28' E 003°41'0 0.0
2017-Apr-21 20:30N 51°28' E 003°41'0 0.0
2017-Apr-21 20:00N 51°28' E 003°41'0 0.0
2017-Apr-21 19:30N 51°28' E 003°41'0 0.0
2017-Apr-21 19:00N 51°28' E 003°41'0 0.0
2017-Apr-21 18:30N 51°28' E 003°41'0 0.0
2017-Apr-21 18:00N 51°28' E 003°41'0 0.0
2017-Apr-21 17:30N 51°28' E 003°41'0 0.0
2017-Apr-21 17:00N 51°28' E 003°41'0 0.0
2017-Apr-21 16:30N 51°28' E 003°41'0 0.0
2017-Apr-21 16:00N 51°28' E 003°41'0 0.0
2017-Apr-21 15:30N 51°28' E 003°41'0 0.0
2017-Apr-21 15:00N 51°28' E 003°41'0 0.0
2017-Apr-21 14:30N 51°28' E 003°41'0 0.0
2017-Apr-21 13:30N 51°28' E 003°41'0 0.0
2017-Apr-21 13:00N 51°28' E 003°41'0 0.0
2017-Apr-21 12:30N 51°28' E 003°41'0 0.0
2017-Apr-21 12:00N 51°28' E 003°41'0 0.0
2017-Apr-21 11:28N 51°28' E 003°41'0 0.0
2017-Apr-21 10:56N 51°28' E 003°41'0 0.0
2017-Apr-21 10:24N 51°28' E 003°41'0 0.0
2017-Apr-21 09:59N 51°28' E 003°41'0 0.0
2017-Apr-21 09:30N 51°28' E 003°41'0 0.0
2017-Apr-21 08:57N 51°28' E 003°41'0 0.0
2017-Apr-21 08:30N 51°28' E 003°41'0 0.0
2017-Apr-21 08:00N 51°28' E 003°41'0 0.0
2017-Apr-21 07:27N 51°28' E 003°41'0 0.0
2017-Apr-21 06:58N 51°28' E 003°41'0 0.0
2017-Apr-21 06:30N 51°28' E 003°41'0 0.0
2017-Apr-21 05:59N 51°28' E 003°41'0 0.0
2017-Apr-21 05:30N 51°28' E 003°41'0 0.0
2017-Apr-21 04:58N 51°28' E 003°41'0 0.0
2017-Apr-21 04:30N 51°28' E 003°41'0 0.0
2017-Apr-21 03:59N 51°28' E 003°41'0 0.0
2017-Apr-21 03:27N 51°28' E 003°41'0 0.0
2017-Apr-21 03:00N 51°28' E 003°41'0 0.0
2017-Apr-21 02:29N 51°28' E 003°41'0 0.0
2017-Apr-21 01:54N 51°28' E 003°41'0 0.0
2017-Apr-21 01:25N 51°28' E 003°41'0 0.0
2017-Apr-21 00:55N 51°28' E 003°41'0 0.0
2017-Apr-21 00:30N 51°28' E 003°41'0 0.0
2017-Apr-21 00:00N 51°28' E 003°41'0 0.0
2017-Apr-20 23:30N 51°28' E 003°41'0 0.0
2017-Apr-20 22:59N 51°28' E 003°41'0 0.0
2017-Apr-20 22:30N 51°28' E 003°41'0 0.5
2017-Apr-20 22:00N 51°28' E 003°41'0 0.0
2017-Apr-20 21:27N 51°28' E 003°41'0 0.0
2017-Apr-20 21:00N 51°28' E 003°41'0 0.0
2017-Apr-20 20:28N 51°28' E 003°41'1 2.4
2017-Apr-20 20:00N 51°27' E 003°40'0 0.0
2017-Apr-20 19:29N 51°27' E 003°40'0 0.0
2017-Apr-20 19:00N 51°27' E 003°40'0 0.0
2017-Apr-20 18:30N 51°27' E 003°40'0 0.0
2017-Apr-20 17:59N 51°27' E 003°40'0 0.0
2017-Apr-20 12:55N 51°27' E 003°40'0 0.0
2017-Apr-20 12:29N 51°27' E 003°40'0 0.0
2017-Apr-20 11:58N 51°27' E 003°40'0 0.0
2017-Apr-20 11:28N 51°27' E 003°40'0 0.0
2017-Apr-20 10:56N 51°27' E 003°40'0 0.0
2017-Apr-20 10:30N 51°27' E 003°40'0 0.0
2017-Apr-20 09:59N 51°27' E 003°40'0 0.0
2017-Apr-20 09:28N 51°27' E 003°40'0 0.0
2017-Apr-20 08:56N 51°27' E 003°40'0 0.0
2017-Apr-20 08:26N 51°27' E 003°40'0 0.0
2017-Apr-20 08:00N 51°27' E 003°40'0 0.0
2017-Apr-20 07:28N 51°27' E 003°40'0 0.0
2017-Apr-20 06:58N 51°27' E 003°40'0 0.0
2017-Apr-20 06:30N 51°27' E 003°40'1 1.3
2017-Apr-20 06:00N 51°27' E 003°40'0 0.0
2017-Apr-20 05:30N 51°27' E 003°40'0 0.0
2017-Apr-20 04:55N 51°27' E 003°40'0 0.0
2017-Apr-20 04:29N 51°27' E 003°40'0 0.0
2017-Apr-20 03:59N 51°27' E 003°40'0 0.0
2017-Apr-20 03:30N 51°27' E 003°40'0 0.0
2017-Apr-20 03:00N 51°27' E 003°40'0 0.0
2017-Apr-20 02:29N 51°27' E 003°40'0 0.0
2017-Apr-20 02:00N 51°27' E 003°40'0 0.0
2017-Apr-20 01:30N 51°27' E 003°40'0 0.0
2017-Apr-20 01:00N 51°27' E 003°40'0 0.0
2017-Apr-20 00:30N 51°27' E 003°40'0 0.0
2017-Apr-19 23:54N 51°27' E 003°40'0 0.0
2017-Apr-19 23:30N 51°27' E 003°40'0 0.0
2017-Apr-19 22:55N 51°27' E 003°40'0 0.0
2017-Apr-19 22:22N 51°27' E 003°40'0 0.0
2017-Apr-19 22:00N 51°27' E 003°40'0 0.0
2017-Apr-19 21:26N 51°27' E 003°40'0 0.0
2017-Apr-19 21:00N 51°27' E 003°40'0 0.0
2017-Apr-19 20:30N 51°27' E 003°40'0 0.0
2017-Apr-19 19:56N 51°27' E 003°40'0 0.0
2017-Apr-19 19:29N 51°27' E 003°40'0 0.0
2017-Apr-19 19:00N 51°27' E 003°40'0 0.0
2017-Apr-19 18:30N 51°27' E 003°40'0 0.0
2017-Apr-19 17:56N 51°27' E 003°40'0 0.2
2017-Apr-19 17:30N 51°27' E 003°40'0 0.0
2017-Apr-19 17:00N 51°27' E 003°40'  
Track history (hours):
 
Tides and Currents Weather Stations Pressure Air Temp Water Temp Dewpoint Dewpoint Depression Visibility Wind Speed Wind Dir Waves Ship Positions

Saga Pearl II

Last reported at 2017-Apr-29 13:17 UTC. Time now 2017-Apr-29 13:32 UTC.
Position N 51°07' E 001°19'.

Length 164 m; draft 6.3 m.

Type: Ship. MMSI: 256878000.

Date/timePositionNaut miles runAvg speedWind from/ knotsBaromVisibWave heightAir tempDewpointWater temp
2017-Apr-29 13:17N 51°07' E 001°19'0 0.0
2017-Apr-29 12:56N 51°07' E 001°19'0 0.1
2017-Apr-29 07:24N 51°07' E 001°20'3 7.4
2017-Apr-29 06:59N 51°07' E 001°24'4 7.4
2017-Apr-29 06:30N 51°08' E 001°30'4 7.3
2017-Apr-29 06:00N 51°10' E 001°35'3 6.1
2017-Apr-29 05:30N 51°11' E 001°39'3 6.1
2017-Apr-29 05:00N 51°13' E 001°43'3 6.3
2017-Apr-29 04:30N 51°15' E 001°46'3 6.9
2017-Apr-29 04:00N 51°18' E 001°49'3 7.0
2017-Apr-29 03:30N 51°21' E 001°53'4 6.9
2017-Apr-29 03:00N 51°24' E 001°56'3 5.6
2017-Apr-29 02:30N 51°26' E 001°59'4 7.7
2017-Apr-29 02:00N 51°24' E 002°05'5 9.4
2017-Apr-29 01:30N 51°22' E 002°12'4 8.8
2017-Apr-29 01:00N 51°20' E 002°18'3 6.4
2017-Apr-29 00:30N 51°22' E 002°23'3 5.2
2017-Apr-29 00:00N 51°22' E 002°27'3 5.5
2017-Apr-28 23:30N 51°23' E 002°31'3 6.3
2017-Apr-28 23:00N 51°22' E 002°36'4 8.3
2017-Apr-28 22:30N 51°22' E 002°43'611.7
2017-Apr-28 22:00N 51°22' E 002°52'612.9
2017-Apr-28 21:30N 51°24' E 003°02'510.5
2017-Apr-28 21:00N 51°24' E 003°10'611.1
2017-Apr-28 20:30N 51°24' E 003°19'611.5
2017-Apr-28 20:00N 51°25' E 003°28'714.8
2017-Apr-28 19:30N 51°27' E 003°40'1 0.9
2017-Apr-28 18:38N 51°27' E 003°41'0 0.0
2017-Apr-28 18:20N 51°27' E 003°41'0 0.0
2017-Apr-28 14:24N 51°27' E 003°41'0 0.0
2017-Apr-28 12:59N 51°27' E 003°41'0 0.0
2017-Apr-28 12:23N 51°27' E 003°41'0 0.0
2017-Apr-28 05:13N 51°27' E 003°41'  
2017-Apr-25 12:56N 51°28' E 003°41'0 0.0
2017-Apr-25 11:47N 51°28' E 003°41'0 0.0
2017-Apr-25 11:16N 51°28' E 003°41'0 0.0
2017-Apr-25 10:58N 51°28' E 003°41'0 0.0
2017-Apr-25 09:40N 51°28' E 003°41'0 0.0
2017-Apr-25 09:22N 51°28' E 003°41'0 0.0
2017-Apr-25 08:42N 51°28' E 003°41'0 0.0
2017-Apr-25 08:21N 51°28' E 003°41'0 0.0
2017-Apr-25 07:57N 51°28' E 003°41'0 0.0
2017-Apr-25 07:29N 51°28' E 003°41'0 0.0
2017-Apr-25 06:51N 51°28' E 003°41'0 0.0
2017-Apr-25 06:29N 51°28' E 003°41'0 0.0
2017-Apr-25 06:00N 51°28' E 003°41'0 0.0
2017-Apr-25 05:29N 51°28' E 003°41'0 0.0
2017-Apr-25 04:59N 51°28' E 003°41'0 0.0
2017-Apr-25 04:30N 51°28' E 003°41'0 0.0
2017-Apr-25 04:00N 51°28' E 003°41'0 0.0
2017-Apr-25 03:30N 51°28' E 003°41'0 0.0
2017-Apr-25 03:00N 51°28' E 003°41'0 0.0
2017-Apr-25 02:30N 51°28' E 003°41'0 0.0
2017-Apr-25 02:00N 51°28' E 003°41'0 0.0
2017-Apr-25 01:30N 51°28' E 003°41'0 0.0
2017-Apr-25 01:00N 51°28' E 003°41'0 0.0
2017-Apr-25 00:30N 51°28' E 003°41'0 0.0
2017-Apr-25 00:00N 51°28' E 003°41'1 1.9
2017-Apr-24 23:29N 51°27' E 003°42'0 0.0
2017-Apr-24 23:00N 51°27' E 003°42'0 0.0
2017-Apr-24 22:28N 51°27' E 003°42'0 0.0
2017-Apr-24 22:00N 51°27' E 003°42'0 0.0
2017-Apr-24 21:30N 51°27' E 003°42'0 0.0
2017-Apr-24 21:00N 51°27' E 003°42'0 0.0
2017-Apr-24 20:26N 51°27' E 003°42'0 0.0
2017-Apr-24 20:00N 51°27' E 003°42'0 0.0
2017-Apr-24 19:28N 51°27' E 003°42'0 0.0
2017-Apr-24 18:48N 51°27' E 003°42'0 0.0
2017-Apr-24 18:30N 51°27' E 003°42'0 0.0
2017-Apr-24 17:59N 51°27' E 003°42'0 0.0
2017-Apr-24 17:30N 51°27' E 003°42'0 0.0
2017-Apr-24 17:00N 51°27' E 003°42'0 0.0
2017-Apr-24 16:30N 51°27' E 003°42'0 0.0
2017-Apr-24 15:57N 51°27' E 003°42'1 1.7
2017-Apr-24 15:30N 51°27' E 003°41'0 0.0
2017-Apr-24 15:00N 51°27' E 003°41'0 0.0
2017-Apr-24 14:30N 51°27' E 003°41'0 0.0
2017-Apr-24 13:30N 51°27' E 003°41'0 0.0
2017-Apr-24 13:00N 51°27' E 003°41'0 0.0
2017-Apr-24 12:25N 51°27' E 003°41'0 0.0
2017-Apr-24 11:58N 51°27' E 003°41'0 0.0
2017-Apr-24 11:26N 51°27' E 003°41'0 0.0
2017-Apr-24 10:59N 51°27' E 003°41'0 0.0
2017-Apr-24 10:30N 51°27' E 003°41'0 0.0
2017-Apr-24 10:00N 51°27' E 003°41'0 0.0
2017-Apr-24 09:29N 51°27' E 003°41'0 0.0
2017-Apr-24 09:00N 51°27' E 003°41'0 0.0
2017-Apr-24 08:30N 51°27' E 003°41'0 0.9
2017-Apr-24 08:00N 51°27' E 003°41'0 0.0
2017-Apr-24 07:30N 51°27' E 003°41'0 0.0
2017-Apr-24 06:58N 51°27' E 003°41'0 0.0
2017-Apr-24 06:30N 51°27' E 003°41'0 0.0
2017-Apr-24 05:56N 51°27' E 003°41'0 0.0
2017-Apr-24 05:29N 51°27' E 003°41'0 0.0
2017-Apr-24 05:00N 51°27' E 003°41'0 0.0
2017-Apr-24 04:30N 51°27' E 003°41'0 0.0
2017-Apr-24 03:59N 51°27' E 003°41'1 2.9
2017-Apr-24 03:30N 51°28' E 003°40'0 0.0
2017-Apr-24 03:00N 51°28' E 003°40'0 0.0
2017-Apr-24 02:28N 51°28' E 003°40'0 0.0
2017-Apr-24 01:58N 51°28' E 003°40'0 0.0
2017-Apr-24 01:28N 51°28' E 003°40'0 0.0
2017-Apr-24 00:57N 51°28' E 003°40'0 0.0
2017-Apr-24 00:28N 51°28' E 003°40'0 0.0
2017-Apr-23 23:59N 51°28' E 003°40'0 0.0
2017-Apr-23 23:26N 51°28' E 003°40'0 0.0
2017-Apr-23 23:00N 51°28' E 003°40'0 0.0
2017-Apr-23 22:30N 51°28' E 003°40'0 0.0
2017-Apr-23 21:58N 51°28' E 003°40'0 0.0
2017-Apr-23 21:28N 51°28' E 003°40'0 0.0
2017-Apr-23 21:00N 51°28' E 003°40'0 0.0
2017-Apr-23 20:28N 51°28' E 003°40'0 0.0
2017-Apr-23 20:00N 51°28' E 003°40'0 0.0
2017-Apr-23 19:30N 51°28' E 003°40'0 0.0
2017-Apr-23 18:54N 51°28' E 003°40'0 0.0
2017-Apr-23 18:29N 51°28' E 003°40'0 0.0
2017-Apr-23 18:00N 51°28' E 003°40'0 0.0
2017-Apr-23 17:30N 51°28' E 003°40'0 0.0
2017-Apr-23 17:00N 51°28' E 003°40'0 0.0
2017-Apr-23 16:28N 51°28' E 003°40'0 0.0
2017-Apr-23 15:55N 51°28' E 003°40'0 0.0
2017-Apr-23 15:29N 51°28' E 003°40'0 0.0
2017-Apr-23 14:59N 51°28' E 003°40'0 0.0
2017-Apr-23 14:00N 51°28' E 003°40'0 0.0
2017-Apr-23 13:29N 51°28' E 003°40'0 0.0
2017-Apr-23 13:00N 51°28' E 003°40'0 0.0
2017-Apr-23 12:30N 51°28' E 003°40'0 0.0
2017-Apr-23 11:59N 51°28' E 003°40'1 0.0
2017-Apr-22 00:58N 51°28' E 003°41'0 0.0
2017-Apr-22 00:28N 51°28' E 003°41'0 0.0
2017-Apr-21 23:55N 51°28' E 003°41'0 0.0
2017-Apr-21 23:29N 51°28' E 003°41'0 0.0
2017-Apr-21 23:00N 51°28' E 003°41'0 0.0
2017-Apr-21 22:30N 51°28' E 003°41'0 0.0
2017-Apr-21 22:00N 51°28' E 003°41'0 0.0
2017-Apr-21 21:30N 51°28' E 003°41'0 0.0
2017-Apr-21 21:00N 51°28' E 003°41'0 0.0
2017-Apr-21 20:30N 51°28' E 003°41'0 0.0
2017-Apr-21 20:00N 51°28' E 003°41'0 0.0
2017-Apr-21 19:30N 51°28' E 003°41'0 0.0
2017-Apr-21 19:00N 51°28' E 003°41'0 0.0
2017-Apr-21 18:30N 51°28' E 003°41'0 0.0
2017-Apr-21 18:00N 51°28' E 003°41'0 0.0
2017-Apr-21 17:30N 51°28' E 003°41'0 0.0
2017-Apr-21 17:00N 51°28' E 003°41'0 0.0
2017-Apr-21 16:30N 51°28' E 003°41'0 0.0
2017-Apr-21 16:00N 51°28' E 003°41'0 0.0
2017-Apr-21 15:30N 51°28' E 003°41'0 0.0
2017-Apr-21 15:00N 51°28' E 003°41'0 0.0
2017-Apr-21 14:30N 51°28' E 003°41'0 0.0
2017-Apr-21 13:30N 51°28' E 003°41'0 0.0
2017-Apr-21 13:00N 51°28' E 003°41'0 0.0
2017-Apr-21 12:30N 51°28' E 003°41'0 0.0
2017-Apr-21 12:00N 51°28' E 003°41'0 0.0
2017-Apr-21 11:28N 51°28' E 003°41'0 0.0
2017-Apr-21 10:56N 51°28' E 003°41'0 0.0
2017-Apr-21 10:24N 51°28' E 003°41'0 0.0
2017-Apr-21 09:59N 51°28' E 003°41'0 0.0
2017-Apr-21 09:30N 51°28' E 003°41'0 0.0
2017-Apr-21 08:57N 51°28' E 003°41'0 0.0
2017-Apr-21 08:30N 51°28' E 003°41'0 0.0
2017-Apr-21 08:00N 51°28' E 003°41'0 0.0
2017-Apr-21 07:27N 51°28' E 003°41'0 0.0
2017-Apr-21 06:58N 51°28' E 003°41'0 0.0
2017-Apr-21 06:30N 51°28' E 003°41'0 0.0
2017-Apr-21 05:59N 51°28' E 003°41'0 0.0
2017-Apr-21 05:30N 51°28' E 003°41'0 0.0
2017-Apr-21 04:58N 51°28' E 003°41'0 0.0
2017-Apr-21 04:30N 51°28' E 003°41'0 0.0
2017-Apr-21 03:59N 51°28' E 003°41'0 0.0
2017-Apr-21 03:27N 51°28' E 003°41'0 0.0
2017-Apr-21 03:00N 51°28' E 003°41'0 0.0
2017-Apr-21 02:29N 51°28' E 003°41'0 0.0
2017-Apr-21 01:54N 51°28' E 003°41'0 0.0
2017-Apr-21 01:25N 51°28' E 003°41'0 0.0
2017-Apr-21 00:55N 51°28' E 003°41'0 0.0
2017-Apr-21 00:30N 51°28' E 003°41'0 0.0
2017-Apr-21 00:00N 51°28' E 003°41'0 0.0
2017-Apr-20 23:30N 51°28' E 003°41'0 0.0
2017-Apr-20 22:59N 51°28' E 003°41'0 0.0
2017-Apr-20 22:30N 51°28' E 003°41'0 0.5
2017-Apr-20 22:00N 51°28' E 003°41'0 0.0
2017-Apr-20 21:27N 51°28' E 003°41'0 0.0
2017-Apr-20 21:00N 51°28' E 003°41'0 0.0
2017-Apr-20 20:28N 51°28' E 003°41'1 2.4
2017-Apr-20 20:00N 51°27' E 003°40'0 0.0
2017-Apr-20 19:29N 51°27' E 003°40'0 0.0
2017-Apr-20 19:00N 51°27' E 003°40'0 0.0
2017-Apr-20 18:30N 51°27' E 003°40'0 0.0
2017-Apr-20 17:59N 51°27' E 003°40'0 0.0
2017-Apr-20 12:55N 51°27' E 003°40'0 0.0
2017-Apr-20 12:29N 51°27' E 003°40'0 0.0
2017-Apr-20 11:58N 51°27' E 003°40'0 0.0
2017-Apr-20 11:28N 51°27' E 003°40'0 0.0
2017-Apr-20 10:56N 51°27' E 003°40'0 0.0
2017-Apr-20 10:30N 51°27' E 003°40'0 0.0
2017-Apr-20 09:59N 51°27' E 003°40'0 0.0
2017-Apr-20 09:28N 51°27' E 003°40'0 0.0
2017-Apr-20 08:56N 51°27' E 003°40'0 0.0
2017-Apr-20 08:26N 51°27' E 003°40'0 0.0
2017-Apr-20 08:00N 51°27' E 003°40'0 0.0
2017-Apr-20 07:28N 51°27' E 003°40'0 0.0
2017-Apr-20 06:58N 51°27' E 003°40'0 0.0
2017-Apr-20 06:30N 51°27' E 003°40'1 1.3
2017-Apr-20 06:00N 51°27' E 003°40'0 0.0
2017-Apr-20 05:30N 51°27' E 003°40'0 0.0
2017-Apr-20 04:55N 51°27' E 003°40'0 0.0
2017-Apr-20 04:29N 51°27' E 003°40'0 0.0
2017-Apr-20 03:59N 51°27' E 003°40'0 0.0
2017-Apr-20 03:30N 51°27' E 003°40'0 0.0
2017-Apr-20 03:00N 51°27' E 003°40'0 0.0
2017-Apr-20 02:29N 51°27' E 003°40'0 0.0
2017-Apr-20 02:00N 51°27' E 003°40'0 0.0
2017-Apr-20 01:30N 51°27' E 003°40'0 0.0
2017-Apr-20 01:00N 51°27' E 003°40'0 0.0
2017-Apr-20 00:30N 51°27' E 003°40'0 0.0
2017-Apr-19 23:54N 51°27' E 003°40'0 0.0
2017-Apr-19 23:30N 51°27' E 003°40'0 0.0
2017-Apr-19 22:55N 51°27' E 003°40'0 0.0
2017-Apr-19 22:22N 51°27' E 003°40'0 0.0
2017-Apr-19 22:00N 51°27' E 003°40'0 0.0
2017-Apr-19 21:26N 51°27' E 003°40'0 0.0
2017-Apr-19 21:00N 51°27' E 003°40'0 0.0
2017-Apr-19 20:30N 51°27' E 003°40'0 0.0
2017-Apr-19 19:56N 51°27' E 003°40'0 0.0
2017-Apr-19 19:29N 51°27' E 003°40'0 0.0
2017-Apr-19 19:00N 51°27' E 003°40'0 0.0
2017-Apr-19 18:30N 51°27' E 003°40'0 0.0
2017-Apr-19 17:56N 51°27' E 003°40'0 0.2
2017-Apr-19 17:30N 51°27' E 003°40'0 0.0
2017-Apr-19 17:00N 51°27' E 003°40'  

Dump ship's entire track history